EDT,Max TemperatureF,Mean TemperatureF,Min TemperatureF,Max Dew PointF,MeanDew PointF,Min DewpointF,Max Humidity, Mean Humidity, Min Humidity, Max Sea Level PressureIn, Mean Sea Level PressureIn, Min Sea Level PressureIn, Max VisibilityMiles, Mean VisibilityMiles, Min VisibilityMiles, Max Wind SpeedMPH, Mean Wind SpeedMPH, Max Gust SpeedMPH,PrecipitationIn, CloudCover, Events, WindDirDegrees
2013-3-1,45,41,37,33,29,25,86,63,47,29.73,29.66,29.57,10,10,10,13,5,20,0.00,8,,315
2013-3-2,39,36,33,27,25,24,73,64,53,29.74,29.71,29.67,10,10,8,12,8,,0.00,8,Snow,311
2013-3-3,37,34,30,24,21,19,73,64,50,29.70,29.68,29.62,10,10,6,14,9,18,0.00,8,Snow,321
2013-3-4,39,34,28,21,20,18,69,60,47,29.84,29.74,29.70,10,10,10,20,11,33,0.00,6,,318
2013-3-5,46,37,28,27,24,19,70,55,46,30.05,29.98,29.86,10,10,10,13,6,23,0.00,5,,6
2013-3-6,42,38,33,35,30,27,83,74,58,30.03,30.01,29.97,10,10,9,24,10,36,0.00,8,Rain,36
2013-3-7,37,34,32,34,30,28,96,86,70,30.06,30.02,29.97,10,3,0,22,16,31,0.16,8,Fog-Snow,4
2013-3-8,41,36,32,32,30,24,96,84,53,30.17,30.02,29.95,10,4,0,16,12,24,0.22,7,Fog-Snow,1
2013-3-9,54,44,32,29,22,16,82,51,22,30.35,30.24,30.17,10,10,10,15,7,20,0.00,0,,2
2013-3-10,50,37,24,33,28,23,100,79,44,30.41,30.36,30.30,10,8,0,10,2,,0.00,1,Fog,184
2013-3-11,52,44,37,43,38,32,90,80,63,30.33,30.23,30.12,10,10,7,13,6,21,0.00,6,,174
2013-3-12,55,50,44,54,49,35,100,89,71,30.12,29.84,29.69,10,6,2,17,9,31,0.90,7,Rain,175
2013-3-13,50,44,37,33,26,21,73,53,33,29.85,29.81,29.76,10,10,10,13,8,21,0.00,2,,310
2013-3-14,37,32,28,28,19,8,93,61,37,29.90,29.84,29.82,10,8,1,21,8,37,0.00,7,Snow,300
2013-3-15,43,34,26,29,17,8,70,50,32,29.93,29.82,29.70,10,10,10,15,10,26,0.00,4,,273
2013-3-16,39,34,30,27,16,9,72,48,31,29.90,29.83,29.76,10,10,10,12,7,22,0.00,5,,316
2013-3-17,37,32,27,16,8,4,54,38,25,30.32,30.10,29.91,10,10,10,20,10,32,0.00,0,,315
2013-3-18,37,29,21,29,13,-1,100,56,22,30.45,30.31,30.15,10,6,0,13,7,21,0.18,3,Fog-Snow,60
2013-3-19,36,33,30,34,31,28,100,92,78,30.12,29.84,29.66,10,5,0,13,8,21,0.28,8,Fog-Rain-Snow,358
2013-3-20,41,34,28,24,19,14,75,54,33,29.83,29.80,29.76,10,10,10,17,8,22,0.00,3,,270
2013-3-21,37,32,28,24,17,9,78,56,36,29.83,29.72,29.63,10,10,10,10,4,17,0.00,7,,9
2013-3-22,41,32,26,23,17,10,64,50,38,29.82,29.74,29.68,10,10,10,14,7,24,0.00,4,,287
2013-3-23,46,39,33,24,19,15,64,48,31,29.87,29.80,29.74,10,10,4,17,8,34,0.00,5,Snow,293
2013-3-24,48,39,32,25,21,19,64,49,37,29.90,29.82,29.73,10,10,10,14,8,18,0.00,1,,325
2013-3-25,46,40,33,27,25,24,70,57,42,29.75,29.61,29.47,10,10,10,17,7,26,0.00,3,,29
2013-3-26,50,42,30,28,23,17,76,50,32,29.83,29.71,29.57,10,10,10,13,7,18,0.00,6,,329
2013-3-27,55,40,26,28,24,19,92,55,27,29.91,29.85,29.80,10,10,10,17,4,25,0.00,3,,317
2013-3-28,53,45,39,34,31,27,76,59,41,30.06,29.98,29.91,10,10,10,12,8,18,0.00,7,Rain,337
2013-3-29,57,46,34,34,29,26,89,53,34,30.10,30.07,30.01,10,10,10,13,5,,0.00,5,,319
2013-3-30,57,46,35,31,24,16,82,43,20,30.13,30.09,30.04,10,10,10,14,5,23,0.00,2,,329
2013-3-31,57,42,30,43,31,23,93,63,28,30.14,29.99,29.68,10,9,3,18,4,33,0.07,3,Rain,173